Time;durP1;ratioP1;P1;durP2;ratioP2;P2;SDS_P1;SDS_P2;PMS_P1;PMS_P2;Temp;Humidity;BMP_temperature;BMP_pressure;BME280_temperature;BME280_humidity;BME280_pressure;Samples;Min_cycle;Max_cycle;Signal;HPM_P1;HPM_P2
2022/12/31 00:01:09;;;;;;;0.35;0.35;;;11.10;99.90;;;;;;5061518;28;20052;-86
2022/12/31 00:03:35;;;;;;;0.00;0.00;;;11.10;99.90;;;;;;5045405;28;20074;-86
2022/12/31 00:06:10;;;;;;;0.38;0.20;;;11.10;99.90;;;;;;5073903;28;20664;-89
2022/12/31 00:08:36;;;;;;;1.13;0.20;;;11.10;99.90;;;;;;5057910;28;20045;-85
2022/12/31 00:11:02;;;;;;;0.20;0.20;;;11.10;99.90;;;;;;5041488;28;20055;-91
2022/12/31 00:13:27;;;;;;;0.23;0.23;;;11.00;99.90;;;;;;5041057;28;20045;-86
2022/12/31 00:15:53;;;;;;;0.10;0.10;;;11.00;99.90;;;;;;5041094;28;20122;-85
2022/12/31 00:18:18;;;;;;;0.20;0.20;;;11.00;99.90;;;;;;5057529;28;20043;-85
2022/12/31 00:20:44;;;;;;;0.10;0.10;;;11.00;99.90;;;;;;5041717;28;20040;-86
2022/12/31 00:23:10;;;;;;;0.30;0.20;;;11.00;99.90;;;;;;5040918;28;20041;-85
2022/12/31 00:25:36;;;;;;;0.30;0.30;;;11.00;99.90;;;;;;5041299;28;20044;-85
2022/12/31 00:28:03;;;;;;;0.15;0.15;;;11.00;99.90;;;;;;5031856;28;20045;-85
2022/12/31 00:30:29;;;;;;;0.15;0.15;;;11.00;99.90;;;;;;5059718;28;20094;-85
2022/12/31 00:32:55;;;;;;;0.23;0.10;;;11.00;99.90;;;;;;5077876;28;20079;-86
2022/12/31 00:35:21;;;;;;;0.20;0.10;;;11.00;99.90;;;;;;5060503;28;20655;-85
2022/12/31 00:37:46;;;;;;;0.27;0.27;;;11.00;99.90;;;;;;5061221;28;20097;-86
2022/12/31 00:40:13;;;;;;;0.53;0.50;;;11.00;99.90;;;;;;5044114;28;20478;-85
2022/12/31 00:42:38;;;;;;;0.30;0.30;;;11.00;99.90;;;;;;5044484;28;20552;-86
2022/12/31 00:45:05;;;;;;;0.77;0.40;;;11.00;99.90;;;;;;5060901;28;20044;-85
2022/12/31 00:47:30;;;;;;;0.13;0.13;;;11.00;99.90;;;;;;5042647;28;20390;-86
2022/12/31 00:49:56;;;;;;;0.10;0.10;;;11.00;99.90;;;;;;5076975;28;20037;-85
2022/12/31 00:52:21;;;;;;;0.20;0.17;;;11.00;99.90;;;;;;5043614;28;20044;-86
2022/12/31 00:54:47;;;;;;;0.30;0.20;;;11.00;99.90;;;;;;5077531;28;20036;-85
2022/12/31 00:57:13;;;;;;;0.30;0.27;;;11.00;99.90;;;;;;5060167;28;20048;-86
2022/12/31 00:59:38;;;;;;;0.60;0.23;;;11.00;99.90;;;;;;5059282;28;20048;-86
2022/12/31 01:02:04;;;;;;;0.20;0.20;;;11.10;99.90;;;;;;5077125;28;20045;-85
2022/12/31 01:04:30;;;;;;;0.50;0.33;;;11.10;99.90;;;;;;5076650;28;20040;-86
2022/12/31 01:06:55;;;;;;;1.00;0.30;;;11.10;99.90;;;;;;5060460;28;20040;-85
2022/12/31 01:09:21;;;;;;;0.47;0.47;;;11.10;99.90;;;;;;5060064;28;20445;-86
2022/12/31 01:11:50;;;;;;;0.90;0.23;;;11.10;99.90;;;;;;5060258;28;20055;-86
2022/12/31 01:14:18;;;;;;;0.30;0.30;;;11.10;99.90;;;;;;5076572;28;20051;-85
2022/12/31 01:16:52;;;;;;;0.68;0.40;;;11.10;99.90;;;;;;5060206;28;20032;-86
2022/12/31 01:19:22;;;;;;;0.50;0.32;;;11.10;99.90;;;;;;5075944;28;20058;-86
2022/12/31 01:21:48;;;;;;;0.80;0.45;;;11.20;99.90;;;;;;5057053;28;20048;-85
2022/12/31 01:24:15;;;;;;;0.30;0.30;;;11.10;99.90;;;;;;5059475;28;20463;-86
2022/12/31 01:26:41;;;;;;;0.28;0.28;;;11.10;99.90;;;;;;5076816;28;20130;-85
2022/12/31 01:29:10;;;;;;;;;;;11.10;99.90;;;;;;5076647;28;20165;-86
2022/12/31 01:31:36;;;;;;;0.22;0.22;;;11.10;99.90;;;;;;5059706;28;19920;-85
2022/12/31 01:34:03;;;;;;;0.70;0.32;;;11.10;99.90;;;;;;5076594;28;20055;-85
2022/12/31 01:36:31;;;;;;;0.47;0.45;;;11.10;99.90;;;;;;5076001;28;20090;-86
2022/12/31 01:39:00;;;;;;;0.08;0.08;;;11.10;99.90;;;;;;5076662;28;20051;-85
2022/12/31 01:41:32;;;;;;;0.32;0.32;;;11.10;99.90;;;;;;5059511;28;20051;-85
2022/12/31 01:43:58;;;;;;;0.52;0.52;;;11.10;99.90;;;;;;5058101;28;20436;-86
2022/12/31 01:46:24;;;;;;;;;;;11.10;99.90;;;;;;5070993;28;20051;-86
2022/12/31 01:48:52;;;;;;;0.03;0.03;;;11.00;99.90;;;;;;5039809;28;19920;-86
2022/12/31 01:51:19;;;;;;;0.85;0.35;;;11.00;99.90;;;;;;5038969;28;20131;-86
2022/12/31 01:53:45;;;;;;;0.13;0.13;;;11.00;99.90;;;;;;5039554;28;20056;-85
2022/12/31 01:56:11;;;;;;;0.57;0.25;;;11.00;99.90;;;;;;5039367;28;20087;-85
2022/12/31 01:58:45;;;;;;;0.20;0.20;;;11.00;99.90;;;;;;5038865;28;20162;-85
2022/12/31 02:01:16;;;;;;;1.23;0.60;;;11.00;99.90;;;;;;5056134;28;20526;-85
2022/12/31 02:03:42;;;;;;;0.10;0.10;;;11.00;99.90;;;;;;5055964;28;20052;-85
2022/12/31 02:06:21;;;;;;;0.30;0.20;;;10.90;99.90;;;;;;5055686;28;20487;-85
2022/12/31 02:08:48;;;;;;;0.10;0.10;;;10.90;99.90;;;;;;5056019;28;20060;-85
2022/12/31 02:11:26;;;;;;;0.75;0.28;;;11.00;99.90;;;;;;5038251;28;20513;-85
2022/12/31 02:13:54;;;;;;;0.73;0.10;;;11.00;99.90;;;;;;5073431;28;20047;-85
2022/12/31 02:16:44;;;;;;;0.20;0.10;;;11.00;99.90;;;;;;5040087;28;20051;-90
2022/12/31 02:19:21;;;;;;;0.10;0.10;;;11.00;99.90;;;;;;5075899;28;20131;-85
2022/12/31 02:21:53;;;;;;;1.17;1.08;;;10.90;99.90;;;;;;5075927;28;20048;-85
2022/12/31 02:24:30;;;;;;;0.32;0.10;;;10.90;99.90;;;;;;5075712;28;20130;-90
2022/12/31 02:27:22;;;;;;;0.30;0.30;;;10.90;99.90;;;;;;5076131;28;20040;-85
2022/12/31 02:29:47;;;;;;;0.63;0.30;;;10.90;99.90;;;;;;5059336;28;20048;-85
2022/12/31 02:32:22;;;;;;;0.50;0.40;;;10.80;99.90;;;;;;5075565;28;20371;-85
2022/12/31 02:35:00;;;;;;;0.22;0.20;;;10.80;99.90;;;;;;5075421;28;20126;-85
2022/12/31 02:37:27;;;;;;;;;;;10.80;99.90;;;;;;5075462;28;20100;-86
2022/12/31 02:39:54;;;;;;;0.43;0.22;;;10.80;99.90;;;;;;5058798;28;19959;-85
2022/12/31 02:42:19;;;;;;;0.15;0.10;;;10.80;99.90;;;;;;5058643;28;20058;-85
2022/12/31 02:44:45;;;;;;;0.17;0.13;;;10.70;99.90;;;;;;5064412;28;20135;-85
2022/12/31 02:47:30;;;;;;;0.47;0.43;;;10.70;99.90;;;;;;5055310;28;20102;-85
2022/12/31 02:50:04;;;;;;;0.32;0.20;;;10.70;99.90;;;;;;5054915;28;20558;-85
2022/12/31 02:53:07;;;;;;;0.32;0.20;;;10.70;99.90;;;;;;5054735;28;20403;-85
2022/12/31 02:55:48;;;;;;;0.10;0.10;;;10.70;99.90;;;;;;5037833;28;20521;-85
2022/12/31 03:04:32;;;;;;;0.00;0.00;;;10.60;99.90;;;;;;5055109;28;20443;-85
2022/12/31 03:07:06;;;;;;;0.20;0.20;;;10.60;99.90;;;;;;5024160;28;20426;-85
2022/12/31 03:09:32;;;;;;;0.00;0.00;;;10.60;99.90;;;;;;5054720;28;20048;-86
2022/12/31 03:14:43;;;;;;;0.35;0.13;;;10.50;99.90;;;;;;5054652;28;20056;-85
2022/12/31 03:17:09;;;;;;;0.23;0.23;;;10.50;99.90;;;;;;5038139;28;20387;-85
2022/12/31 03:22:27;;;;;;;0.08;0.08;;;10.40;99.90;;;;;;5055051;28;20059;-85
2022/12/31 03:27:40;;;;;;;0.20;0.20;;;10.40;99.90;;;;;;5058754;28;20056;-85
2022/12/31 03:30:06;;;;;;;0.00;0.00;;;10.40;99.90;;;;;;5059068;28;20056;-86
2022/12/31 03:32:32;;;;;;;0.00;0.00;;;10.40;99.90;;;;;;5025476;28;20143;-86
2022/12/31 03:34:57;;;;;;;0.10;0.10;;;10.30;99.90;;;;;;5058783;28;20131;-85
2022/12/31 03:37:23;;;;;;;0.00;0.00;;;10.30;99.90;;;;;;5025588;28;20036;-86
2022/12/31 03:39:49;;;;;;;0.00;0.00;;;10.30;99.90;;;;;;5058126;28;20043;-86
2022/12/31 03:42:14;;;;;;;0.00;0.00;;;10.30;99.90;;;;;;5042358;28;20098;-86
2022/12/31 03:44:40;;;;;;;0.10;0.10;;;10.20;99.90;;;;;;5041704;28;20052;-86
2022/12/31 03:47:06;;;;;;;0.00;0.00;;;10.20;99.90;;;;;;5064772;28;20436;-86
2022/12/31 03:49:31;;;;;;;0.00;0.00;;;10.20;99.90;;;;;;5061823;28;20052;-87
2022/12/31 03:51:57;;;;;;;0.00;0.00;;;10.20;99.90;;;;;;5062089;28;20402;-86
2022/12/31 03:54:23;;;;;;;0.03;0.03;;;10.20;99.90;;;;;;5078603;28;20044;-86
2022/12/31 03:56:48;;;;;;;0.53;0.10;;;10.10;99.90;;;;;;5045076;28;20079;-86
2022/12/31 03:59:14;;;;;;;0.00;0.00;;;10.10;99.90;;;;;;5044713;28;20129;-86
2022/12/31 04:01:40;;;;;;;0.00;0.00;;;10.10;99.90;;;;;;5078116;28;20052;-86
2022/12/31 04:04:05;;;;;;;0.00;0.00;;;10.10;99.90;;;;;;5061903;28;20040;-85
2022/12/31 04:06:31;;;;;;;0.00;0.00;;;10.20;99.90;;;;;;5061753;28;20383;-91
2022/12/31 04:08:57;;;;;;;0.00;0.00;;;10.10;99.90;;;;;;5078256;28;20091;-85
2022/12/31 04:11:22;;;;;;;0.37;0.10;;;10.10;99.90;;;;;;5061775;28;20094;-85
2022/12/31 04:13:48;;;;;;;0.00;0.00;;;10.10;99.90;;;;;;5060770;28;20086;-85
2022/12/31 04:16:13;;;;;;;0.10;0.10;;;10.20;99.90;;;;;;5059336;28;20371;-85
2022/12/31 04:18:39;;;;;;;0.10;0.10;;;10.20;99.90;;;;;;5057131;28;20037;-86
2022/12/31 04:21:05;;;;;;;0.10;0.10;;;10.20;99.90;;;;;;5041593;28;20048;-86
2022/12/31 04:23:31;;;;;;;0.20;0.20;;;10.20;99.90;;;;;;5041468;28;20048;-85
2022/12/31 04:25:56;;;;;;;0.10;0.10;;;10.30;99.90;;;;;;5057696;28;20106;-86
2022/12/31 04:28:22;;;;;;;0.30;0.30;;;10.30;99.90;;;;;;5025197;28;20135;-85
2022/12/31 04:30:48;;;;;;;0.00;0.00;;;10.30;99.90;;;;;;5024209;28;20441;-85
2022/12/31 04:33:13;;;;;;;0.20;0.10;;;10.30;99.90;;;;;;5024820;28;20091;-85
2022/12/31 04:35:39;;;;;;;0.33;0.10;;;10.30;99.90;;;;;;5056115;28;20040;-86
2022/12/31 04:38:05;;;;;;;0.00;0.00;;;10.30;99.90;;;;;;5041279;28;20037;-85
2022/12/31 04:40:31;;;;;;;0.03;0.03;;;10.30;99.90;;;;;;5041171;28;20048;-85
2022/12/31 04:42:57;;;;;;;0.00;0.00;;;10.40;99.90;;;;;;5040781;28;20459;-86
2022/12/31 04:45:22;;;;;;;0.37;0.17;;;10.40;99.90;;;;;;5024769;28;20084;-86
2022/12/31 04:47:48;;;;;;;0.00;0.00;;;10.40;99.90;;;;;;5057303;28;20045;-86
2022/12/31 04:50:14;;;;;;;0.10;0.10;;;10.40;99.90;;;;;;5042126;28;20495;-86
2022/12/31 04:52:39;;;;;;;0.00;0.00;;;10.30;99.90;;;;;;5023983;28;20064;-88
2022/12/31 04:55:05;;;;;;;0.17;0.17;;;10.40;99.90;;;;;;5057341;28;20047;-86
2022/12/31 04:57:31;;;;;;;0.10;0.10;;;10.30;99.90;;;;;;5057364;28;20044;-86
2022/12/31 04:59:56;;;;;;;0.40;0.20;;;10.30;99.90;;;;;;5056080;28;20322;-86
2022/12/31 05:02:22;;;;;;;0.00;0.00;;;10.30;99.90;;;;;;5024118;28;20395;-86
2022/12/31 05:04:48;;;;;;;0.00;0.00;;;10.30;99.90;;;;;;5023667;28;20048;-86
2022/12/31 05:07:13;;;;;;;0.00;0.00;;;10.30;99.90;;;;;;5024176;28;20052;-86
2022/12/31 05:09:39;;;;;;;0.00;0.00;;;10.40;99.90;;;;;;5040378;28;20391;-90
2022/12/31 05:12:05;;;;;;;0.10;0.10;;;10.30;99.90;;;;;;5057065;28;20127;-86
2022/12/31 05:14:31;;;;;;;0.30;0.10;;;10.30;99.90;;;;;;5040154;28;20210;-86
2022/12/31 05:16:57;;;;;;;0.10;0.10;;;10.30;99.90;;;;;;5056640;28;20049;-86
2022/12/31 05:19:23;;;;;;;0.25;0.10;;;10.30;99.90;;;;;;5024043;28;20048;-86
2022/12/31 05:22:27;;;;;;;0.10;0.00;;;10.30;99.90;;;;;;5059902;28;20105;-87
2022/12/31 05:24:34;;;;;;;0.10;0.10;;;10.30;99.90;;;;;;5076197;28;20784;-86
2022/12/31 05:27:00;;;;;;;0.00;0.00;;;10.30;99.90;;;;;;5059858;28;20086;-86
2022/12/31 05:29:26;;;;;;;0.00;0.00;;;10.30;99.90;;;;;;5060225;28;20086;-86
2022/12/31 05:31:52;;;;;;;0.13;0.00;;;10.30;99.90;;;;;;5059846;28;20466;-86
2022/12/31 05:34:17;;;;;;;0.30;0.20;;;10.30;99.90;;;;;;5076649;28;20056;-86
2022/12/31 05:36:43;;;;;;;0.10;0.10;;;10.30;99.90;;;;;;5076311;28;20482;-91
2022/12/31 05:39:09;;;;;;;0.10;0.10;;;10.30;99.90;;;;;;5060019;28;20079;-86
2022/12/31 05:41:34;;;;;;;0.40;0.20;;;10.30;99.90;;;;;;5043563;28;20036;-86
2022/12/31 05:44:00;;;;;;;1.03;0.57;;;10.30;99.90;;;;;;5059565;28;20463;-86
2022/12/31 05:46:26;;;;;;;0.10;0.10;;;10.30;99.90;;;;;;5076511;28;20063;-86
2022/12/31 05:48:51;;;;;;;0.10;0.10;;;10.30;99.90;;;;;;5059453;28;20048;-86
2022/12/31 05:51:17;;;;;;;0.20;0.20;;;10.30;99.90;;;;;;5074760;28;20123;-86
2022/12/31 05:53:43;;;;;;;0.00;0.00;;;10.30;99.90;;;;;;5025943;28;20063;-86
2022/12/31 05:56:08;;;;;;;0.30;0.30;;;10.30;99.90;;;;;;5039024;28;20036;-86
2022/12/31 05:58:34;;;;;;;0.20;0.10;;;10.30;99.90;;;;;;5039350;28;20053;-86
2022/12/31 06:00:59;;;;;;;0.13;0.13;;;10.30;99.90;;;;;;5039032;28;20059;-86
2022/12/31 06:03:25;;;;;;;0.13;0.10;;;10.30;99.90;;;;;;5039581;28;20125;-86
2022/12/31 06:05:51;;;;;;;0.43;0.20;;;10.30;99.90;;;;;;5039091;28;20040;-86
2022/12/31 06:08:16;;;;;;;0.10;0.10;;;10.40;99.90;;;;;;5023001;28;20452;-86
2022/12/31 06:10:42;;;;;;;0.83;0.40;;;10.30;99.90;;;;;;5039367;28;20052;-86
2022/12/31 06:13:08;;;;;;;0.20;0.20;;;10.40;99.90;;;;;;5055648;28;20394;-86
2022/12/31 06:15:38;;;;;;;0.10;0.10;;;10.40;99.90;;;;;;5039468;28;20071;-85
2022/12/31 06:18:05;;;;;;;0.55;0.43;;;10.30;99.90;;;;;;5055526;28;20106;-86
2022/12/31 06:20:30;;;;;;;0.38;0.20;;;10.30;99.90;;;;;;5055653;28;20053;-86
2022/12/31 06:22:56;;;;;;;0.10;0.00;;;10.30;99.90;;;;;;5038872;28;20064;-86
2022/12/31 06:25:22;;;;;;;0.20;0.20;;;10.30;99.90;;;;;;5039138;28;20048;-86
2022/12/31 06:27:47;;;;;;;0.07;0.07;;;10.30;99.90;;;;;;5039272;28;20478;-86
2022/12/31 06:30:13;;;;;;;0.20;0.10;;;10.40;99.90;;;;;;5038773;28;20044;-86
2022/12/31 06:32:39;;;;;;;0.50;0.40;;;10.30;99.90;;;;;;5039112;28;20048;-86
2022/12/31 06:35:06;;;;;;;0.10;0.00;;;10.30;99.90;;;;;;5021668;28;20479;-86
2022/12/31 06:37:31;;;;;;;0.10;0.10;;;10.30;99.90;;;;;;5055563;28;20411;-86
2022/12/31 06:39:57;;;;;;;0.10;0.10;;;10.30;99.90;;;;;;5038504;28;20044;-86
2022/12/31 06:42:23;;;;;;;0.75;0.10;;;10.30;99.90;;;;;;5038791;28;20135;-86
2022/12/31 06:44:49;;;;;;;0.07;0.07;;;10.20;99.90;;;;;;5038745;28;20209;-86
2022/12/31 06:47:14;;;;;;;0.20;0.20;;;10.20;99.90;;;;;;5038357;28;20056;-86
2022/12/31 06:49:40;;;;;;;0.10;0.10;;;10.20;99.90;;;;;;5055508;28;20048;-85
2022/12/31 06:52:06;;;;;;;0.00;0.00;;;10.20;99.90;;;;;;5054774;28;20538;-85
2022/12/31 06:54:31;;;;;;;0.00;0.00;;;10.20;99.90;;;;;;5038451;28;20074;-86
2022/12/31 06:56:57;;;;;;;0.17;0.10;;;10.20;99.90;;;;;;5021233;28;20113;-86
2022/12/31 06:59:27;;;;;;;0.47;0.45;;;10.20;99.90;;;;;;5035647;28;20052;-85
2022/12/31 07:02:16;;;;;;;0.00;0.00;;;10.10;99.90;;;;;;5074992;28;20046;-90
2022/12/31 07:05:08;;;;;;;0.85;0.20;;;10.10;99.90;;;;;;5055492;28;20493;-86
2022/12/31 07:07:34;;;;;;;0.08;0.08;;;10.10;99.90;;;;;;5057176;28;20048;-85
2022/12/31 07:10:05;;;;;;;0.00;0.00;;;10.10;99.90;;;;;;5074356;28;20382;-85
2022/12/31 07:12:40;;;;;;;0.10;0.00;;;10.10;99.90;;;;;;5075394;28;20508;-86
2022/12/31 07:15:40;;;;;;;0.05;0.00;;;10.10;99.90;;;;;;5074575;28;20074;-86
2022/12/31 07:18:20;;;;;;;0.00;0.00;;;10.10;99.90;;;;;;5073270;28;20067;-86
2022/12/31 07:20:46;;;;;;;0.00;0.00;;;10.10;99.90;;;;;;5075188;28;20040;-86
2022/12/31 07:23:12;;;;;;;0.00;0.00;;;10.10;99.90;;;;;;5074559;28;20117;-86
2022/12/31 07:25:43;;;;;;;0.10;0.10;;;10.10;99.90;;;;;;5074850;28;20636;-85
2022/12/31 07:28:32;;;;;;;0.43;0.10;;;10.10;99.90;;;;;;5057936;28;20052;-86
2022/12/31 07:31:13;;;;;;;0.43;0.10;;;10.10;99.90;;;;;;5057770;28;20071;-87
2022/12/31 07:33:47;;;;;;;0.20;0.13;;;10.10;99.90;;;;;;5074718;28;20044;-86
2022/12/31 07:36:38;;;;;;;0.43;0.20;;;10.10;99.90;;;;;;5062666;28;20383;-86
2022/12/31 07:39:19;;;;;;;0.00;0.00;;;10.10;99.90;;;;;;5054457;28;20044;-86
2022/12/31 07:42:11;;;;;;;0.00;0.00;;;10.10;99.90;;;;;;5038281;28;20056;-86
2022/12/31 07:44:47;;;;;;;0.10;0.10;;;10.10;99.90;;;;;;5036575;28;20075;-86
2022/12/31 07:47:25;;;;;;;0.00;0.00;;;10.10;99.90;;;;;;5054366;28;20048;-86
2022/12/31 07:49:52;;;;;;;0.00;0.00;;;10.10;99.90;;;;;;5054953;28;20090;-86
2022/12/31 07:52:18;;;;;;;;;;;10.10;99.90;;;;;;5054673;28;20044;-86
2022/12/31 07:54:44;;;;;;;0.03;0.03;;;10.10;99.90;;;;;;5054633;28;20378;-86
2022/12/31 07:57:15;;;;;;;0.00;0.00;;;10.10;99.90;;;;;;5054337;28;20112;-86
2022/12/31 07:59:47;;;;;;;0.00;0.00;;;10.20;99.90;;;;;;5037728;28;20131;-86
2022/12/31 08:02:33;;;;;;;0.00;0.00;;;10.20;99.90;;;;;;5037851;28;20111;-86
2022/12/31 08:05:19;;;;;;;0.00;0.00;;;10.20;99.90;;;;;;5014001;28;20495;-86
2022/12/31 08:08:02;;;;;;;0.10;0.00;;;10.30;99.90;;;;;;5037947;28;20475;-86
2022/12/31 08:11:01;;;;;;;0.30;0.10;;;10.30;99.90;;;;;;5058576;28;20048;-86
2022/12/31 08:13:27;;;;;;;0.98;0.60;;;10.30;99.90;;;;;;5041636;28;20049;-86
2022/12/31 08:15:53;;;;;;;0.00;0.00;;;10.30;99.90;;;;;;5068435;28;20078;-86
2022/12/31 08:18:19;;;;;;;0.00;0.00;;;10.40;99.90;;;;;;5061420;28;20046;-86
2022/12/31 08:21:22;;;;;;;0.60;0.60;;;10.40;99.90;;;;;;5061685;28;20486;-86
2022/12/31 08:23:56;;;;;;;1.35;0.93;;;10.40;99.90;;;;;;5078191;28;20274;-86
2022/12/31 08:26:35;;;;;;;0.00;0.00;;;10.40;99.90;;;;;;5061136;28;20139;-86
2022/12/31 08:29:24;;;;;;;0.22;0.22;;;10.50;99.90;;;;;;5078172;28;20087;-85
2022/12/31 08:32:09;;;;;;;0.30;0.13;;;10.50;99.90;;;;;;5078229;28;20046;-86
2022/12/31 08:35:02;;;;;;;0.08;0.08;;;10.50;99.90;;;;;;5078029;28;20455;-86
2022/12/31 08:37:57;;;;;;;0.03;0.00;;;10.50;99.90;;;;;;5077540;28;20433;-86
2022/12/31 08:40:26;;;;;;;0.00;0.00;;;10.50;99.90;;;;;;5047567;28;20426;-86
2022/12/31 08:43:11;;;;;;;0.15;0.08;;;10.50;99.90;;;;;;5077802;28;20482;-86
2022/12/31 08:45:45;;;;;;;0.00;0.00;;;10.60;99.90;;;;;;5061472;28;20044;-86
2022/12/31 08:48:39;;;;;;;0.00;0.00;;;10.60;99.90;;;;;;5077576;28;20106;-87
2022/12/31 08:51:11;;;;;;;0.00;0.00;;;10.60;99.90;;;;;;5077676;28;20059;-86
2022/12/31 08:53:37;;;;;;;0.00;0.00;;;10.60;99.90;;;;;;5077827;28;20048;-86
2022/12/31 08:56:54;;;;;;;0.65;0.30;;;10.70;99.90;;;;;;5060795;28;20109;-86
2022/12/31 08:59:34;;;;;;;0.10;0.10;;;10.80;99.90;;;;;;4976800;28;20050;-87
2022/12/31 09:02:36;;;;;;;0.28;0.10;;;10.80;99.90;;;;;;5066257;28;20542;-86
2022/12/31 09:05:27;;;;;;;0.13;0.13;;;10.90;99.90;;;;;;5077643;28;20048;-86
2022/12/31 09:08:19;;;;;;;0.20;0.20;;;11.00;99.90;;;;;;5037302;28;20131;-86
2022/12/31 09:10:56;;;;;;;0.40;0.30;;;11.10;99.90;;;;;;5020614;28;20491;-86
2022/12/31 09:13:57;;;;;;;0.90;0.77;;;11.10;99.90;;;;;;5036942;28;20505;-86
2022/12/31 09:16:31;;;;;;;1.33;0.60;;;11.30;99.90;;;;;;5001146;28;20183;-86
2022/12/31 09:18:57;;;;;;;0.05;0.05;;;11.40;99.90;;;;;;5021067;28;20049;-86
2022/12/31 09:21:22;;;;;;;1.33;1.23;;;11.40;99.90;;;;;;5036272;28;20368;-86
2022/12/31 09:23:48;;;;;;;4.00;2.07;;;11.40;99.90;;;;;;5020763;28;20068;-86
2022/12/31 09:26:14;;;;;;;2.22;1.48;;;11.50;99.90;;;;;;5020013;28;20500;-86
2022/12/31 09:28:56;;;;;;;8.33;5.97;;;11.50;99.90;;;;;;5020291;28;20055;-86
2022/12/31 09:31:36;;;;;;;3.58;3.28;;;11.50;99.90;;;;;;5020229;28;20054;-86
2022/12/31 09:34:22;;;;;;;2.70;2.03;;;11.60;99.90;;;;;;5036829;28;20503;-86
2022/12/31 09:36:52;;;;;;;1.98;1.75;;;11.60;99.90;;;;;;5037676;28;20040;-86
2022/12/31 09:39:41;;;;;;;1.48;0.90;;;11.70;99.90;;;;;;5073103;28;20182;-86
2022/12/31 09:42:44;;;;;;;9.38;5.43;;;11.70;99.90;;;;;;5058534;28;20049;-86
2022/12/31 09:45:46;;;;;;;0.95;0.82;;;11.80;99.90;;;;;;5056395;28;20044;-86
2022/12/31 09:48:24;;;;;;;0.73;0.60;;;11.80;99.90;;;;;;5056850;28;20048;-86
2022/12/31 09:51:24;;;;;;;2.03;1.40;;;11.80;99.90;;;;;;5073151;28;20044;-86
2022/12/31 09:54:16;;;;;;;0.95;0.80;;;11.80;99.90;;;;;;5059971;28;20139;-86
2022/12/31 09:56:46;;;;;;;9.43;7.07;;;11.80;99.90;;;;;;5076085;28;20513;-86
2022/12/31 09:59:12;;;;;;;7.38;4.15;;;11.90;99.90;;;;;;5057083;28;20052;-86
2022/12/31 10:01:46;;;;;;;3.83;2.70;;;11.90;99.90;;;;;;5059420;28;20406;-86
2022/12/31 10:04:18;;;;;;;2.90;2.25;;;12.00;99.90;;;;;;5059637;28;20516;-86
2022/12/31 10:07:04;;;;;;;3.97;1.83;;;12.00;99.90;;;;;;5059729;28;20040;-86
2022/12/31 10:09:48;;;;;;;1.23;0.75;;;12.00;99.90;;;;;;5075918;28;20395;-86
2022/12/31 10:12:41;;;;;;;4.70;3.85;;;12.10;99.90;;;;;;5076268;28;20440;-86
2022/12/31 10:15:31;;;;;;;2.75;2.50;;;12.10;99.90;;;;;;5075677;28;20040;-86
2022/12/31 10:18:04;;;;;;;4.85;3.45;;;12.10;99.90;;;;;;5076423;28;20379;-86
2022/12/31 10:21:02;;;;;;;2.58;2.00;;;12.10;99.90;;;;;;5075704;28;20453;-86
2022/12/31 10:23:45;;;;;;;2.05;1.85;;;12.20;99.90;;;;;;5028115;28;20090;-86
2022/12/31 10:26:30;;;;;;;1.33;0.57;;;12.20;99.90;;;;;;5075156;28;20062;-86
2022/12/31 10:29:11;;;;;;;0.30;0.30;;;12.20;99.90;;;;;;5050257;28;20051;-86
2022/12/31 10:31:52;;;;;;;0.75;0.55;;;12.20;99.90;;;;;;5075436;28;20043;-86
2022/12/31 10:34:51;;;;;;;0.73;0.73;;;12.20;99.90;;;;;;5075603;28;20036;-86
2022/12/31 10:37:22;;;;;;;0.43;0.43;;;12.20;99.90;;;;;;5059155;28;20056;-86
2022/12/31 10:40:09;;;;;;;0.70;0.70;;;12.30;99.90;;;;;;5075473;28;20043;-85
2022/12/31 10:42:49;;;;;;;1.55;1.42;;;12.30;99.90;;;;;;5058850;28;20570;-86
2022/12/31 10:45:56;;;;;;;0.60;0.60;;;12.40;99.90;;;;;;5075749;28;20070;-86
2022/12/31 10:48:43;;;;;;;0.68;0.68;;;12.40;99.90;;;;;;5031331;28;20060;-93
2022/12/31 10:51:33;;;;;;;0.82;0.82;;;12.40;99.90;;;;;;5075490;28;20102;-86
2022/12/31 10:54:17;;;;;;;0.73;0.70;;;12.50;99.90;;;;;;5058837;28;20160;-86
2022/12/31 10:56:46;;;;;;;1.67;1.20;;;12.50;99.90;;;;;;5074028;28;20445;-86
2022/12/31 10:59:32;;;;;;;1.48;0.65;;;12.40;99.90;;;;;;5074416;28;20052;-86
2022/12/31 11:02:25;;;;;;;3.00;2.47;;;12.10;99.90;;;;;;5058389;28;20462;-86
2022/12/31 11:05:23;;;;;;;0.90;0.85;;;12.50;99.90;;;;;;5075393;28;20051;-86
2022/12/31 11:08:37;;;;;;;1.88;1.73;;;12.50;99.90;;;;;;5058524;28;20051;-86
2022/12/31 11:11:47;;;;;;;4.03;2.97;;;12.50;99.90;;;;;;4988441;28;20049;-86
2022/12/31 11:14:38;;;;;;;2.00;1.80;;;12.50;99.90;;;;;;5040986;28;20052;-86
2022/12/31 11:17:07;;;;;;;1.08;1.08;;;12.50;99.90;;;;;;5075311;28;20425;-86
2022/12/31 11:20:06;;;;;;;0.95;0.82;;;12.50;99.90;;;;;;5058380;28;20056;-86
2022/12/31 11:22:50;;;;;;;0.10;0.10;;;12.50;99.90;;;;;;5058359;28;20063;-86
2022/12/31 11:25:48;;;;;;;1.30;1.20;;;12.40;99.90;;;;;;5075209;28;20048;-86
2022/12/31 11:28:21;;;;;;;0.77;0.60;;;12.40;99.90;;;;;;5025556;28;20044;-86
2022/12/31 11:30:53;;;;;;;2.67;2.33;;;12.40;99.90;;;;;;5042940;28;20557;-86
2022/12/31 11:34:06;;;;;;;0.52;0.52;;;12.40;99.90;;;;;;5075226;28;20079;-86
2022/12/31 11:36:37;;;;;;;7.72;6.20;;;12.40;99.90;;;;;;5038814;28;20055;-86
2022/12/31 11:39:53;;;;;;;0.93;0.88;;;12.40;99.90;;;;;;5058490;28;20482;-85
2022/12/31 11:42:50;;;;;;;2.70;2.50;;;12.40;99.90;;;;;;5014566;28;20048;-85
2022/12/31 11:45:43;;;;;;;1.85;0.45;;;12.40;99.90;;;;;;5078224;28;20040;-85
2022/12/31 11:48:37;;;;;;;0.88;0.80;;;12.40;99.90;;;;;;5079320;28;20127;-86
2022/12/31 11:51:18;;;;;;;1.73;1.20;;;12.30;99.90;;;;;;5062278;28;20477;-86
2022/12/31 11:54:08;;;;;;;1.92;1.52;;;12.30;99.90;;;;;;5078584;28;20078;-85
2022/12/31 11:56:40;;;;;;;1.02;1.02;;;12.30;99.90;;;;;;5061550;28;20044;-86
2022/12/31 11:59:12;;;;;;;0.77;0.70;;;12.30;99.90;;;;;;5049637;28;20491;-86
2022/12/31 12:01:46;;;;;;;0.30;0.30;;;12.30;99.90;;;;;;5065624;28;20498;-86
2022/12/31 12:04:12;;;;;;;2.30;1.10;;;12.30;99.90;;;;;;5062110;28;20064;-86
2022/12/31 12:06:39;;;;;;;0.93;0.70;;;12.30;99.90;;;;;;5045196;28;20169;-86
2022/12/31 12:09:12;;;;;;;5.03;3.78;;;12.30;99.90;;;;;;5061734;28;20069;-86
2022/12/31 12:11:39;;;;;;;6.13;4.38;;;12.30;99.90;;;;;;5061571;28;20052;-86
2022/12/31 12:14:39;;;;;;;2.47;2.28;;;12.20;99.90;;;;;;5062028;28;20098;-86
2022/12/31 12:17:09;;;;;;;1.50;1.40;;;12.30;99.90;;;;;;5078116;28;20047;-86
2022/12/31 12:19:41;;;;;;;2.15;1.95;;;12.30;99.90;;;;;;5078156;28;20044;-94
2022/12/31 12:22:13;;;;;;;2.75;2.28;;;12.40;99.90;;;;;;5078635;28;20055;-86
2022/12/31 12:24:39;;;;;;;3.05;2.75;;;12.40;99.90;;;;;;5061261;28;20047;-87
2022/12/31 12:27:20;;;;;;;3.17;1.95;;;12.50;99.90;;;;;;5044993;28;20047;-86
2022/12/31 12:29:46;;;;;;;6.15;3.92;;;12.50;99.90;;;;;;5076245;28;20044;-86
2022/12/31 12:32:20;;;;;;;7.55;4.57;;;12.50;99.90;;;;;;5043126;28;20094;-86
2022/12/31 12:34:47;;;;;;;4.03;2.28;;;12.60;99.90;;;;;;5057686;28;20040;-86
2022/12/31 12:37:45;;;;;;;3.75;3.25;;;12.60;99.90;;;;;;5058071;28;20056;-86
2022/12/31 12:40:20;;;;;;;1.83;1.73;;;12.70;99.90;;;;;;4997912;28;20065;-87
2022/12/31 12:42:51;;;;;;;3.88;1.35;;;12.80;99.90;;;;;;5057327;28;20056;-86
2022/12/31 12:45:20;;;;;;;1.80;1.67;;;12.80;99.90;;;;;;5057784;28;20046;-86
2022/12/31 12:47:49;;;;;;;0.30;0.30;;;12.90;99.90;;;;;;5057500;28;20494;-86
2022/12/31 12:50:21;;;;;;;0.73;0.68;;;12.90;99.90;;;;;;5057763;28;20044;-86
2022/12/31 12:53:18;;;;;;;1.80;1.25;;;12.90;99.90;;;;;;5040471;28;20074;-86
2022/12/31 12:56:10;;;;;;;0.73;0.70;;;12.90;99.90;;;;;;5039734;28;20036;-87
2022/12/31 12:59:02;;;;;;;0.50;0.50;;;12.90;99.90;;;;;;5051860;28;20068;-87
2022/12/31 13:01:51;;;;;;;2.25;1.38;;;12.90;99.90;;;;;;5021882;28;20094;-86
2022/12/31 13:04:43;;;;;;;0.63;0.57;;;12.90;99.90;;;;;;5021243;28;20049;-86
2022/12/31 13:07:36;;;;;;;0.15;0.13;;;12.90;99.90;;;;;;5037661;28;20094;-86
2022/12/31 13:10:14;;;;;;;0.95;0.40;;;12.90;99.90;;;;;;5036711;28;20400;-86
2022/12/31 13:12:50;;;;;;;0.45;0.45;;;12.90;99.90;;;;;;5020932;28;20446;-87
2022/12/31 13:15:39;;;;;;;0.30;0.13;;;12.90;99.90;;;;;;5020635;28;20060;-86
2022/12/31 13:18:35;;;;;;;2.15;0.63;;;12.90;99.90;;;;;;5036770;28;20483;-86
2022/12/31 13:21:07;;;;;;;0.30;0.30;;;12.90;99.90;;;;;;5036963;28;20053;-86
2022/12/31 13:23:53;;;;;;;0.38;0.38;;;12.80;99.90;;;;;;5036992;28;20124;-86
2022/12/31 13:26:38;;;;;;;1.00;0.60;;;12.80;99.90;;;;;;5036981;28;20056;-86
2022/12/31 13:29:08;;;;;;;0.38;0.35;;;12.70;99.90;;;;;;5037384;28;20425;-86
2022/12/31 13:31:36;;;;;;;0.10;0.05;;;12.70;99.90;;;;;;5040192;28;20053;-86
2022/12/31 13:34:09;;;;;;;0.10;0.10;;;12.60;99.90;;;;;;5040025;28;20056;-86
2022/12/31 13:36:39;;;;;;;0.30;0.20;;;12.60;99.90;;;;;;5040159;28;20047;-86
2022/12/31 13:39:12;;;;;;;0.13;0.10;;;12.50;99.90;;;;;;5056457;28;20040;-86